sensor_id;sensor_type;location;lat;lon;timestamp;P1;durP1;ratioP1;P2;durP2;ratioP2
77111;SDS011;66064;50.226;14.344;2023-06-22T00:00:49;7.53;;;5.43;;
77111;SDS011;66064;50.226;14.344;2023-06-22T00:03:30;6.80;;;5.38;;
77111;SDS011;66064;50.226;14.344;2023-06-22T00:05:56;8.27;;;4.60;;
77111;SDS011;66064;50.226;14.344;2023-06-22T00:08:22;10.77;;;6.30;;
77111;SDS011;66064;50.226;14.344;2023-06-22T00:10:48;8.35;;;5.60;;
77111;SDS011;66064;50.226;14.344;2023-06-22T00:13:14;8.63;;;5.63;;
77111;SDS011;66064;50.226;14.344;2023-06-22T00:15:41;9.20;;;5.40;;
77111;SDS011;66064;50.226;14.344;2023-06-22T00:18:07;7.00;;;5.45;;
77111;SDS011;66064;50.226;14.344;2023-06-22T00:20:34;10.20;;;5.20;;
77111;SDS011;66064;50.226;14.344;2023-06-22T00:23:04;8.35;;;5.07;;
77111;SDS011;66064;50.226;14.344;2023-06-22T00:25:34;8.90;;;6.25;;
77111;SDS011;66064;50.226;14.344;2023-06-22T00:28:02;9.63;;;6.07;;
77111;SDS011;66064;50.226;14.344;2023-06-22T00:30:30;9.25;;;5.63;;
77111;SDS011;66064;50.226;14.344;2023-06-22T00:32:59;9.38;;;5.95;;
77111;SDS011;66064;50.226;14.344;2023-06-22T00:35:26;10.50;;;5.57;;
77111;SDS011;66064;50.226;14.344;2023-06-22T00:37:55;7.75;;;5.53;;
77111;SDS011;66064;50.226;14.344;2023-06-22T00:40:32;8.57;;;5.18;;
77111;SDS011;66064;50.226;14.344;2023-06-22T00:42:59;7.57;;;6.10;;
77111;SDS011;66064;50.226;14.344;2023-06-22T00:45:25;6.85;;;5.45;;
77111;SDS011;66064;50.226;14.344;2023-06-22T00:47:53;11.70;;;5.80;;
77111;SDS011;66064;50.226;14.344;2023-06-22T00:50:22;7.82;;;5.47;;
77111;SDS011;66064;50.226;14.344;2023-06-22T00:52:53;7.35;;;6.18;;
77111;SDS011;66064;50.226;14.344;2023-06-22T00:55:24;8.00;;;5.85;;
77111;SDS011;66064;50.226;14.344;2023-06-22T00:57:54;7.38;;;5.53;;
77111;SDS011;66064;50.226;14.344;2023-06-22T01:00:22;6.95;;;5.70;;
77111;SDS011;66064;50.226;14.344;2023-06-22T01:02:53;10.80;;;6.00;;
77111;SDS011;66064;50.226;14.344;2023-06-22T01:05:20;7.10;;;5.05;;
77111;SDS011;66064;50.226;14.344;2023-06-22T01:18:33;11.15;;;7.13;;
77111;SDS011;66064;50.226;14.344;2023-06-22T01:21:03;10.13;;;6.65;;
77111;SDS011;66064;50.226;14.344;2023-06-22T01:23:42;7.65;;;5.97;;
77111;SDS011;66064;50.226;14.344;2023-06-22T01:29:19;11.50;;;7.65;;
77111;SDS011;66064;50.226;14.344;2023-06-22T01:31:46;12.13;;;6.68;;
77111;SDS011;66064;50.226;14.344;2023-06-22T01:34:15;7.03;;;5.78;;
77111;SDS011;66064;50.226;14.344;2023-06-22T01:36:42;7.47;;;5.38;;
77111;SDS011;66064;50.226;14.344;2023-06-22T01:39:09;10.18;;;9.13;;
77111;SDS011;66064;50.226;14.344;2023-06-22T01:41:37;9.18;;;6.53;;
77111;SDS011;66064;50.226;14.344;2023-06-22T01:44:05;10.10;;;6.38;;
77111;SDS011;66064;50.226;14.344;2023-06-22T01:46:34;8.85;;;6.70;;
77111;SDS011;66064;50.226;14.344;2023-06-22T01:49:02;9.07;;;5.80;;
77111;SDS011;66064;50.226;14.344;2023-06-22T01:51:29;7.70;;;7.00;;
77111;SDS011;66064;50.226;14.344;2023-06-22T01:53:55;7.93;;;7.13;;
77111;SDS011;66064;50.226;14.344;2023-06-22T01:56:21;8.93;;;6.50;;
77111;SDS011;66064;50.226;14.344;2023-06-22T01:58:55;9.48;;;6.55;;
77111;SDS011;66064;50.226;14.344;2023-06-22T02:01:31;9.10;;;6.50;;
77111;SDS011;66064;50.226;14.344;2023-06-22T02:04:06;11.10;;;6.65;;
77111;SDS011;66064;50.226;14.344;2023-06-22T02:09:08;11.98;;;8.60;;
77111;SDS011;66064;50.226;14.344;2023-06-22T02:11:37;8.70;;;7.07;;
77111;SDS011;66064;50.226;14.344;2023-06-22T02:14:07;11.68;;;7.75;;
77111;SDS011;66064;50.226;14.344;2023-06-22T02:16:33;9.82;;;7.20;;
77111;SDS011;66064;50.226;14.344;2023-06-22T02:19:01;8.55;;;6.50;;
77111;SDS011;66064;50.226;14.344;2023-06-22T02:21:31;10.07;;;6.00;;
77111;SDS011;66064;50.226;14.344;2023-06-22T02:23:58;7.78;;;5.97;;
77111;SDS011;66064;50.226;14.344;2023-06-22T02:26:24;13.70;;;7.10;;
77111;SDS011;66064;50.226;14.344;2023-06-22T02:28:51;12.68;;;7.20;;
77111;SDS011;66064;50.226;14.344;2023-06-22T02:31:18;8.38;;;6.22;;
77111;SDS011;66064;50.226;14.344;2023-06-22T02:33:44;11.27;;;6.40;;
77111;SDS011;66064;50.226;14.344;2023-06-22T02:36:10;11.20;;;8.70;;
77111;SDS011;66064;50.226;14.344;2023-06-22T02:38:40;10.30;;;5.70;;
77111;SDS011;66064;50.226;14.344;2023-06-22T02:41:13;12.82;;;6.30;;
77111;SDS011;66064;50.226;14.344;2023-06-22T02:43:44;9.40;;;6.72;;
77111;SDS011;66064;50.226;14.344;2023-06-22T02:46:11;9.60;;;6.07;;
77111;SDS011;66064;50.226;14.344;2023-06-22T02:48:39;8.57;;;6.70;;
77111;SDS011;66064;50.226;14.344;2023-06-22T02:51:05;12.15;;;7.43;;
77111;SDS011;66064;50.226;14.344;2023-06-22T02:53:31;9.25;;;6.82;;
77111;SDS011;66064;50.226;14.344;2023-06-22T02:55:57;8.80;;;6.10;;
77111;SDS011;66064;50.226;14.344;2023-06-22T02:58:23;9.88;;;7.63;;
77111;SDS011;66064;50.226;14.344;2023-06-22T03:00:49;8.88;;;6.55;;
77111;SDS011;66064;50.226;14.344;2023-06-22T03:03:19;9.93;;;7.05;;
77111;SDS011;66064;50.226;14.344;2023-06-22T03:05:45;9.57;;;6.57;;
77111;SDS011;66064;50.226;14.344;2023-06-22T03:08:11;9.30;;;6.82;;
77111;SDS011;66064;50.226;14.344;2023-06-22T03:10:37;8.48;;;7.05;;
77111;SDS011;66064;50.226;14.344;2023-06-22T03:13:03;9.90;;;6.00;;
77111;SDS011;66064;50.226;14.344;2023-06-22T03:15:29;10.93;;;8.65;;
77111;SDS011;66064;50.226;14.344;2023-06-22T03:17:57;14.18;;;7.10;;
77111;SDS011;66064;50.226;14.344;2023-06-22T03:20:22;10.07;;;6.60;;
77111;SDS011;66064;50.226;14.344;2023-06-22T03:22:48;9.55;;;7.55;;
77111;SDS011;66064;50.226;14.344;2023-06-22T03:25:14;10.88;;;7.82;;
77111;SDS011;66064;50.226;14.344;2023-06-22T03:27:41;9.30;;;6.47;;
77111;SDS011;66064;50.226;14.344;2023-06-22T03:30:08;12.93;;;7.72;;
77111;SDS011;66064;50.226;14.344;2023-06-22T03:32:35;12.18;;;8.18;;
77111;SDS011;66064;50.226;14.344;2023-06-22T03:35:01;9.15;;;6.40;;
77111;SDS011;66064;50.226;14.344;2023-06-22T03:37:28;10.07;;;6.45;;
77111;SDS011;66064;50.226;14.344;2023-06-22T03:39:54;15.02;;;7.68;;
77111;SDS011;66064;50.226;14.344;2023-06-22T03:42:21;12.05;;;6.47;;
77111;SDS011;66064;50.226;14.344;2023-06-22T03:44:47;8.32;;;7.40;;
77111;SDS011;66064;50.226;14.344;2023-06-22T03:47:13;10.48;;;6.90;;
77111;SDS011;66064;50.226;14.344;2023-06-22T03:49:39;9.77;;;6.93;;
77111;SDS011;66064;50.226;14.344;2023-06-22T03:52:05;8.45;;;7.18;;
77111;SDS011;66064;50.226;14.344;2023-06-22T03:54:31;7.03;;;5.03;;
77111;SDS011;66064;50.226;14.344;2023-06-22T03:56:58;11.02;;;6.72;;
77111;SDS011;66064;50.226;14.344;2023-06-22T03:59:24;10.02;;;6.72;;
77111;SDS011;66064;50.226;14.344;2023-06-22T04:01:51;9.43;;;7.93;;
77111;SDS011;66064;50.226;14.344;2023-06-22T04:04:17;8.27;;;6.13;;
77111;SDS011;66064;50.226;14.344;2023-06-22T04:06:44;11.27;;;6.75;;
77111;SDS011;66064;50.226;14.344;2023-06-22T04:09:10;9.93;;;7.03;;
77111;SDS011;66064;50.226;14.344;2023-06-22T04:11:36;9.77;;;7.03;;
77111;SDS011;66064;50.226;14.344;2023-06-22T04:14:02;9.07;;;6.68;;
77111;SDS011;66064;50.226;14.344;2023-06-22T04:16:28;11.63;;;7.63;;
77111;SDS011;66064;50.226;14.344;2023-06-22T04:18:54;8.70;;;7.45;;
77111;SDS011;66064;50.226;14.344;2023-06-22T04:21:20;9.15;;;6.15;;
77111;SDS011;66064;50.226;14.344;2023-06-22T04:23:46;8.82;;;6.10;;
77111;SDS011;66064;50.226;14.344;2023-06-22T04:26:13;6.93;;;4.75;;
77111;SDS011;66064;50.226;14.344;2023-06-22T04:28:41;8.45;;;6.45;;
77111;SDS011;66064;50.226;14.344;2023-06-22T04:31:07;8.20;;;5.68;;
77111;SDS011;66064;50.226;14.344;2023-06-22T04:33:33;8.93;;;5.68;;
77111;SDS011;66064;50.226;14.344;2023-06-22T04:35:59;8.07;;;5.15;;
77111;SDS011;66064;50.226;14.344;2023-06-22T04:38:29;9.25;;;5.55;;
77111;SDS011;66064;50.226;14.344;2023-06-22T04:40:58;7.70;;;5.93;;
77111;SDS011;66064;50.226;14.344;2023-06-22T04:43:26;8.82;;;6.13;;
77111;SDS011;66064;50.226;14.344;2023-06-22T04:45:58;6.85;;;5.43;;
77111;SDS011;66064;50.226;14.344;2023-06-22T04:48:29;9.43;;;5.78;;
77111;SDS011;66064;50.226;14.344;2023-06-22T04:50:59;13.30;;;6.45;;
77111;SDS011;66064;50.226;14.344;2023-06-22T04:53:30;9.25;;;6.10;;
77111;SDS011;66064;50.226;14.344;2023-06-22T04:55:57;8.77;;;5.57;;
77111;SDS011;66064;50.226;14.344;2023-06-22T04:58:23;11.73;;;4.75;;
77111;SDS011;66064;50.226;14.344;2023-06-22T05:00:52;7.85;;;5.32;;
77111;SDS011;66064;50.226;14.344;2023-06-22T05:03:18;8.20;;;4.57;;
77111;SDS011;66064;50.226;14.344;2023-06-22T05:05:44;11.48;;;5.55;;
77111;SDS011;66064;50.226;14.344;2023-06-22T05:08:10;7.90;;;5.28;;
77111;SDS011;66064;50.226;14.344;2023-06-22T05:10:36;8.30;;;5.25;;
77111;SDS011;66064;50.226;14.344;2023-06-22T05:13:02;9.88;;;5.50;;
77111;SDS011;66064;50.226;14.344;2023-06-22T05:15:28;9.18;;;5.72;;
77111;SDS011;66064;50.226;14.344;2023-06-22T05:17:56;7.97;;;5.50;;
77111;SDS011;66064;50.226;14.344;2023-06-22T05:20:24;9.13;;;5.43;;
77111;SDS011;66064;50.226;14.344;2023-06-22T05:22:49;6.93;;;5.32;;
77111;SDS011;66064;50.226;14.344;2023-06-22T05:25:15;8.30;;;5.13;;
77111;SDS011;66064;50.226;14.344;2023-06-22T05:27:41;9.80;;;5.88;;
77111;SDS011;66064;50.226;14.344;2023-06-22T05:30:09;10.05;;;6.32;;
77111;SDS011;66064;50.226;14.344;2023-06-22T05:32:37;7.70;;;5.53;;
77111;SDS011;66064;50.226;14.344;2023-06-22T05:35:03;8.50;;;5.75;;
77111;SDS011;66064;50.226;14.344;2023-06-22T05:37:30;8.85;;;5.53;;
77111;SDS011;66064;50.226;14.344;2023-06-22T05:39:56;7.38;;;5.13;;
77111;SDS011;66064;50.226;14.344;2023-06-22T05:42:22;8.63;;;5.40;;
77111;SDS011;66064;50.226;14.344;2023-06-22T05:47:18;11.23;;;6.13;;
77111;SDS011;66064;50.226;14.344;2023-06-22T05:49:44;8.38;;;6.00;;
77111;SDS011;66064;50.226;14.344;2023-06-22T05:52:10;9.57;;;6.38;;
77111;SDS011;66064;50.226;14.344;2023-06-22T05:54:37;10.02;;;6.00;;
77111;SDS011;66064;50.226;14.344;2023-06-22T05:57:04;9.88;;;6.18;;
77111;SDS011;66064;50.226;14.344;2023-06-22T05:59:30;8.25;;;5.60;;
77111;SDS011;66064;50.226;14.344;2023-06-22T06:01:56;10.20;;;6.20;;
77111;SDS011;66064;50.226;14.344;2023-06-22T06:04:22;8.38;;;5.72;;
77111;SDS011;66064;50.226;14.344;2023-06-22T06:06:48;11.18;;;6.78;;
77111;SDS011;66064;50.226;14.344;2023-06-22T06:09:14;10.77;;;6.82;;
77111;SDS011;66064;50.226;14.344;2023-06-22T06:11:40;13.25;;;6.40;;
77111;SDS011;66064;50.226;14.344;2023-06-22T06:14:06;10.57;;;6.53;;
77111;SDS011;66064;50.226;14.344;2023-06-22T06:16:32;11.55;;;6.47;;
77111;SDS011;66064;50.226;14.344;2023-06-22T06:18:58;7.90;;;5.70;;
77111;SDS011;66064;50.226;14.344;2023-06-22T06:21:24;8.70;;;6.20;;
77111;SDS011;66064;50.226;14.344;2023-06-22T06:23:50;8.02;;;5.60;;
77111;SDS011;66064;50.226;14.344;2023-06-22T06:26:19;11.02;;;6.18;;
77111;SDS011;66064;50.226;14.344;2023-06-22T06:29:06;8.07;;;5.07;;
77111;SDS011;66064;50.226;14.344;2023-06-22T06:31:32;9.00;;;5.95;;
77111;SDS011;66064;50.226;14.344;2023-06-22T06:33:59;8.50;;;5.88;;
77111;SDS011;66064;50.226;14.344;2023-06-22T06:36:24;13.38;;;6.47;;
77111;SDS011;66064;50.226;14.344;2023-06-22T06:38:51;8.70;;;6.15;;
77111;SDS011;66064;50.226;14.344;2023-06-22T06:41:20;10.25;;;5.43;;
77111;SDS011;66064;50.226;14.344;2023-06-22T06:43:46;8.82;;;5.43;;
77111;SDS011;66064;50.226;14.344;2023-06-22T06:46:12;7.15;;;5.22;;
77111;SDS011;66064;50.226;14.344;2023-06-22T06:48:38;8.82;;;5.75;;
77111;SDS011;66064;50.226;14.344;2023-06-22T06:51:05;8.38;;;4.82;;
77111;SDS011;66064;50.226;14.344;2023-06-22T06:53:31;7.60;;;4.25;;
77111;SDS011;66064;50.226;14.344;2023-06-22T06:55:57;7.95;;;4.95;;
77111;SDS011;66064;50.226;14.344;2023-06-22T06:58:23;10.02;;;4.75;;
77111;SDS011;66064;50.226;14.344;2023-06-22T07:00:49;9.07;;;4.88;;
77111;SDS011;66064;50.226;14.344;2023-06-22T07:03:15;7.95;;;3.90;;
77111;SDS011;66064;50.226;14.344;2023-06-22T07:05:41;8.27;;;5.03;;
77111;SDS011;66064;50.226;14.344;2023-06-22T07:08:07;7.85;;;4.28;;
77111;SDS011;66064;50.226;14.344;2023-06-22T07:10:33;6.82;;;4.40;;
77111;SDS011;66064;50.226;14.344;2023-06-22T07:12:59;7.63;;;4.35;;
77111;SDS011;66064;50.226;14.344;2023-06-22T07:15:25;6.28;;;3.92;;
77111;SDS011;66064;50.226;14.344;2023-06-22T07:17:51;7.70;;;4.65;;
77111;SDS011;66064;50.226;14.344;2023-06-22T07:20:17;7.20;;;4.70;;
77111;SDS011;66064;50.226;14.344;2023-06-22T07:25:10;8.48;;;3.53;;
77111;SDS011;66064;50.226;14.344;2023-06-22T07:27:43;7.78;;;4.53;;
77111;SDS011;66064;50.226;14.344;2023-06-22T07:30:21;7.93;;;4.45;;
77111;SDS011;66064;50.226;14.344;2023-06-22T07:32:48;7.60;;;4.47;;
77111;SDS011;66064;50.226;14.344;2023-06-22T07:35:14;6.88;;;3.88;;
77111;SDS011;66064;50.226;14.344;2023-06-22T07:40:08;6.63;;;3.97;;
77111;SDS011;66064;50.226;14.344;2023-06-22T07:42:35;7.00;;;4.22;;
77111;SDS011;66064;50.226;14.344;2023-06-22T07:45:02;7.35;;;4.57;;
77111;SDS011;66064;50.226;14.344;2023-06-22T07:47:29;8.13;;;4.32;;
77111;SDS011;66064;50.226;14.344;2023-06-22T07:49:55;6.82;;;3.80;;
77111;SDS011;66064;50.226;14.344;2023-06-22T07:52:24;6.18;;;4.50;;
77111;SDS011;66064;50.226;14.344;2023-06-22T07:54:50;5.15;;;3.75;;
77111;SDS011;66064;50.226;14.344;2023-06-22T07:57:17;5.68;;;3.85;;
77111;SDS011;66064;50.226;14.344;2023-06-22T07:59:43;6.50;;;4.57;;
77111;SDS011;66064;50.226;14.344;2023-06-22T08:02:09;5.95;;;3.75;;
77111;SDS011;66064;50.226;14.344;2023-06-22T08:04:35;6.18;;;4.07;;
77111;SDS011;66064;50.226;14.344;2023-06-22T08:07:01;6.07;;;3.65;;
77111;SDS011;66064;50.226;14.344;2023-06-22T08:09:29;5.30;;;3.72;;
77111;SDS011;66064;50.226;14.344;2023-06-22T08:11:58;6.82;;;4.20;;
77111;SDS011;66064;50.226;14.344;2023-06-22T08:14:27;6.35;;;3.63;;
77111;SDS011;66064;50.226;14.344;2023-06-22T08:16:55;5.70;;;3.72;;
77111;SDS011;66064;50.226;14.344;2023-06-22T08:19:21;5.38;;;3.70;;
77111;SDS011;66064;50.226;14.344;2023-06-22T08:21:47;7.85;;;4.43;;
77111;SDS011;66064;50.226;14.344;2023-06-22T08:24:13;6.40;;;3.80;;
77111;SDS011;66064;50.226;14.344;2023-06-22T08:26:39;7.00;;;3.55;;
77111;SDS011;66064;50.226;14.344;2023-06-22T08:29:05;6.95;;;3.63;;
77111;SDS011;66064;50.226;14.344;2023-06-22T08:31:31;6.82;;;3.60;;
77111;SDS011;66064;50.226;14.344;2023-06-22T08:33:59;6.55;;;4.10;;
77111;SDS011;66064;50.226;14.344;2023-06-22T08:36:26;5.18;;;3.92;;
77111;SDS011;66064;50.226;14.344;2023-06-22T08:38:54;5.10;;;3.80;;
77111;SDS011;66064;50.226;14.344;2023-06-22T08:41:27;5.72;;;3.95;;
77111;SDS011;66064;50.226;14.344;2023-06-22T08:43:52;5.82;;;4.18;;
77111;SDS011;66064;50.226;14.344;2023-06-22T08:46:19;6.07;;;4.50;;
77111;SDS011;66064;50.226;14.344;2023-06-22T08:48:48;5.93;;;3.58;;
77111;SDS011;66064;50.226;14.344;2023-06-22T08:51:16;5.68;;;4.00;;
77111;SDS011;66064;50.226;14.344;2023-06-22T08:53:42;5.10;;;3.60;;
77111;SDS011;66064;50.226;14.344;2023-06-22T08:56:10;6.68;;;4.13;;
77111;SDS011;66064;50.226;14.344;2023-06-22T08:58:36;5.40;;;3.55;;
77111;SDS011;66064;50.226;14.344;2023-06-22T09:01:02;5.68;;;3.88;;
77111;SDS011;66064;50.226;14.344;2023-06-22T09:03:28;9.07;;;4.30;;
77111;SDS011;66064;50.226;14.344;2023-06-22T09:05:54;4.85;;;3.92;;
77111;SDS011;66064;50.226;14.344;2023-06-22T09:08:20;5.50;;;4.00;;
77111;SDS011;66064;50.226;14.344;2023-06-22T09:10:46;6.50;;;4.18;;
77111;SDS011;66064;50.226;14.344;2023-06-22T09:13:12;5.07;;;3.63;;
77111;SDS011;66064;50.226;14.344;2023-06-22T09:15:38;4.80;;;3.55;;
77111;SDS011;66064;50.226;14.344;2023-06-22T09:18:04;4.75;;;3.65;;
77111;SDS011;66064;50.226;14.344;2023-06-22T09:20:30;4.95;;;3.78;;
77111;SDS011;66064;50.226;14.344;2023-06-22T09:22:56;4.30;;;3.22;;
77111;SDS011;66064;50.226;14.344;2023-06-22T09:25:22;4.90;;;3.78;;
77111;SDS011;66064;50.226;14.344;2023-06-22T09:27:48;6.18;;;4.07;;
77111;SDS011;66064;50.226;14.344;2023-06-22T09:30:14;5.78;;;4.35;;
77111;SDS011;66064;50.226;14.344;2023-06-22T09:32:40;9.00;;;4.00;;
77111;SDS011;66064;50.226;14.344;2023-06-22T09:35:06;5.20;;;3.70;;
77111;SDS011;66064;50.226;14.344;2023-06-22T09:37:33;6.38;;;3.78;;
77111;SDS011;66064;50.226;14.344;2023-06-22T09:40:00;5.55;;;4.20;;
77111;SDS011;66064;50.226;14.344;2023-06-22T09:42:25;5.50;;;3.55;;
77111;SDS011;66064;50.226;14.344;2023-06-22T09:44:51;8.35;;;4.07;;
77111;SDS011;66064;50.226;14.344;2023-06-22T09:47:17;5.75;;;3.83;;
77111;SDS011;66064;50.226;14.344;2023-06-22T09:49:43;7.35;;;4.03;;
77111;SDS011;66064;50.226;14.344;2023-06-22T09:52:09;5.93;;;4.00;;
77111;SDS011;66064;50.226;14.344;2023-06-22T09:54:37;5.53;;;4.00;;
77111;SDS011;66064;50.226;14.344;2023-06-22T09:57:02;5.63;;;4.25;;
77111;SDS011;66064;50.226;14.344;2023-06-22T09:59:29;7.57;;;4.55;;
77111;SDS011;66064;50.226;14.344;2023-06-22T10:01:54;6.25;;;4.32;;
77111;SDS011;66064;50.226;14.344;2023-06-22T10:04:20;7.25;;;4.15;;
77111;SDS011;66064;50.226;14.344;2023-06-22T10:06:46;5.07;;;3.53;;
77111;SDS011;66064;50.226;14.344;2023-06-22T10:09:13;5.97;;;3.88;;
77111;SDS011;66064;50.226;14.344;2023-06-22T10:11:38;5.57;;;3.88;;
77111;SDS011;66064;50.226;14.344;2023-06-22T10:14:05;5.50;;;3.45;;
77111;SDS011;66064;50.226;14.344;2023-06-22T10:16:31;6.78;;;4.22;;
77111;SDS011;66064;50.226;14.344;2023-06-22T10:18:57;5.40;;;3.95;;
77111;SDS011;66064;50.226;14.344;2023-06-22T10:21:23;5.70;;;4.13;;
77111;SDS011;66064;50.226;14.344;2023-06-22T10:23:50;7.40;;;3.92;;
77111;SDS011;66064;50.226;14.344;2023-06-22T10:26:16;4.93;;;3.67;;
77111;SDS011;66064;50.226;14.344;2023-06-22T10:28:42;6.40;;;4.05;;
77111;SDS011;66064;50.226;14.344;2023-06-22T10:31:07;6.85;;;4.30;;
77111;SDS011;66064;50.226;14.344;2023-06-22T10:33:33;5.63;;;3.85;;
77111;SDS011;66064;50.226;14.344;2023-06-22T10:35:59;5.15;;;3.38;;
77111;SDS011;66064;50.226;14.344;2023-06-22T10:38:25;6.50;;;4.28;;
77111;SDS011;66064;50.226;14.344;2023-06-22T10:40:51;4.70;;;3.58;;
77111;SDS011;66064;50.226;14.344;2023-06-22T10:43:23;10.60;;;5.57;;
77111;SDS011;66064;50.226;14.344;2023-06-22T10:45:49;6.90;;;3.80;;
77111;SDS011;66064;50.226;14.344;2023-06-22T10:48:15;6.10;;;3.97;;
77111;SDS011;66064;50.226;14.344;2023-06-22T10:50:41;7.75;;;4.10;;
77111;SDS011;66064;50.226;14.344;2023-06-22T10:53:07;5.72;;;3.75;;
77111;SDS011;66064;50.226;14.344;2023-06-22T10:55:33;5.28;;;3.35;;
77111;SDS011;66064;50.226;14.344;2023-06-22T10:57:59;6.30;;;4.18;;
77111;SDS011;66064;50.226;14.344;2023-06-22T11:00:24;5.63;;;3.45;;
77111;SDS011;66064;50.226;14.344;2023-06-22T11:02:50;5.72;;;4.38;;
77111;SDS011;66064;50.226;14.344;2023-06-22T11:05:16;6.53;;;4.90;;
77111;SDS011;66064;50.226;14.344;2023-06-22T11:07:43;6.65;;;4.90;;
77111;SDS011;66064;50.226;14.344;2023-06-22T11:10:09;7.72;;;3.90;;
77111;SDS011;66064;50.226;14.344;2023-06-22T11:12:36;6.40;;;4.43;;
77111;SDS011;66064;50.226;14.344;2023-06-22T11:15:02;6.00;;;3.88;;
77111;SDS011;66064;50.226;14.344;2023-06-22T11:17:28;6.68;;;4.53;;
77111;SDS011;66064;50.226;14.344;2023-06-22T11:19:54;5.97;;;4.63;;
77111;SDS011;66064;50.226;14.344;2023-06-22T11:22:20;6.80;;;4.15;;
77111;SDS011;66064;50.226;14.344;2023-06-22T11:24:46;5.90;;;4.30;;
77111;SDS011;66064;50.226;14.344;2023-06-22T11:27:12;6.35;;;4.72;;
77111;SDS011;66064;50.226;14.344;2023-06-22T11:29:38;6.32;;;4.30;;
77111;SDS011;66064;50.226;14.344;2023-06-22T11:32:11;6.72;;;4.22;;
77111;SDS011;66064;50.226;14.344;2023-06-22T11:35:16;5.75;;;4.35;;
77111;SDS011;66064;50.226;14.344;2023-06-22T11:37:42;7.03;;;3.78;;
77111;SDS011;66064;50.226;14.344;2023-06-22T11:40:08;5.90;;;3.95;;
77111;SDS011;66064;50.226;14.344;2023-06-22T11:42:35;5.95;;;4.03;;
77111;SDS011;66064;50.226;14.344;2023-06-22T11:45:01;5.78;;;4.28;;
77111;SDS011;66064;50.226;14.344;2023-06-22T11:47:27;6.95;;;5.03;;
77111;SDS011;66064;50.226;14.344;2023-06-22T11:49:53;6.85;;;4.90;;
77111;SDS011;66064;50.226;14.344;2023-06-22T11:52:19;5.95;;;4.25;;
77111;SDS011;66064;50.226;14.344;2023-06-22T11:54:45;6.57;;;4.05;;
77111;SDS011;66064;50.226;14.344;2023-06-22T11:57:11;6.22;;;4.00;;
77111;SDS011;66064;50.226;14.344;2023-06-22T11:59:37;6.55;;;4.43;;
77111;SDS011;66064;50.226;14.344;2023-06-22T12:02:03;6.13;;;4.35;;
77111;SDS011;66064;50.226;14.344;2023-06-22T12:04:30;5.38;;;3.95;;
77111;SDS011;66064;50.226;14.344;2023-06-22T12:06:56;5.90;;;4.10;;
77111;SDS011;66064;50.226;14.344;2023-06-22T12:09:23;5.72;;;4.68;;
77111;SDS011;66064;50.226;14.344;2023-06-22T12:11:50;6.40;;;4.03;;
77111;SDS011;66064;50.226;14.344;2023-06-22T12:14:15;7.70;;;4.93;;
77111;SDS011;66064;50.226;14.344;2023-06-22T12:16:41;6.07;;;4.00;;
77111;SDS011;66064;50.226;14.344;2023-06-22T12:19:09;5.85;;;4.22;;
77111;SDS011;66064;50.226;14.344;2023-06-22T12:21:36;6.68;;;4.90;;
77111;SDS011;66064;50.226;14.344;2023-06-22T12:24:03;8.55;;;4.78;;
77111;SDS011;66064;50.226;14.344;2023-06-22T12:26:29;6.93;;;4.63;;
77111;SDS011;66064;50.226;14.344;2023-06-22T12:28:54;7.78;;;4.47;;
77111;SDS011;66064;50.226;14.344;2023-06-22T12:31:21;6.57;;;4.40;;
77111;SDS011;66064;50.226;14.344;2023-06-22T12:33:46;5.95;;;4.25;;
77111;SDS011;66064;50.226;14.344;2023-06-22T12:36:12;6.40;;;4.63;;
77111;SDS011;66064;50.226;14.344;2023-06-22T12:38:38;6.85;;;4.35;;
77111;SDS011;66064;50.226;14.344;2023-06-22T12:41:04;7.32;;;4.32;;
77111;SDS011;66064;50.226;14.344;2023-06-22T12:43:30;7.03;;;5.25;;
77111;SDS011;66064;50.226;14.344;2023-06-22T12:45:56;9.15;;;4.95;;
77111;SDS011;66064;50.226;14.344;2023-06-22T12:48:22;7.13;;;4.28;;
77111;SDS011;66064;50.226;14.344;2023-06-22T12:50:48;5.65;;;3.72;;
77111;SDS011;66064;50.226;14.344;2023-06-22T12:53:14;6.38;;;4.57;;
77111;SDS011;66064;50.226;14.344;2023-06-22T12:55:40;6.40;;;4.55;;
77111;SDS011;66064;50.226;14.344;2023-06-22T12:58:06;7.03;;;4.43;;
77111;SDS011;66064;50.226;14.344;2023-06-22T13:00:32;6.72;;;4.43;;
77111;SDS011;66064;50.226;14.344;2023-06-22T13:02:58;6.05;;;4.68;;
77111;SDS011;66064;50.226;14.344;2023-06-22T13:05:24;7.97;;;4.93;;
77111;SDS011;66064;50.226;14.344;2023-06-22T13:07:50;6.63;;;4.78;;
77111;SDS011;66064;50.226;14.344;2023-06-22T13:10:16;6.07;;;4.30;;
77111;SDS011;66064;50.226;14.344;2023-06-22T13:12:41;6.93;;;4.85;;
77111;SDS011;66064;50.226;14.344;2023-06-22T13:15:08;6.97;;;4.32;;
77111;SDS011;66064;50.226;14.344;2023-06-22T13:17:34;6.65;;;4.90;;
77111;SDS011;66064;50.226;14.344;2023-06-22T13:20:00;6.25;;;4.88;;
77111;SDS011;66064;50.226;14.344;2023-06-22T13:27:19;7.00;;;4.85;;
77111;SDS011;66064;50.226;14.344;2023-06-22T13:29:45;6.22;;;4.30;;
77111;SDS011;66064;50.226;14.344;2023-06-22T13:32:11;6.68;;;4.38;;
77111;SDS011;66064;50.226;14.344;2023-06-22T13:34:37;7.50;;;5.03;;
77111;SDS011;66064;50.226;14.344;2023-06-22T13:37:03;6.20;;;5.05;;
77111;SDS011;66064;50.226;14.344;2023-06-22T13:39:29;6.32;;;4.45;;
77111;SDS011;66064;50.226;14.344;2023-06-22T13:41:56;7.18;;;4.97;;
77111;SDS011;66064;50.226;14.344;2023-06-22T13:44:23;8.52;;;4.60;;
77111;SDS011;66064;50.226;14.344;2023-06-22T13:46:53;6.20;;;5.10;;
77111;SDS011;66064;50.226;14.344;2023-06-22T13:49:19;6.38;;;4.10;;
77111;SDS011;66064;50.226;14.344;2023-06-22T13:51:44;6.82;;;4.40;;
77111;SDS011;66064;50.226;14.344;2023-06-22T13:54:10;7.47;;;4.75;;
77111;SDS011;66064;50.226;14.344;2023-06-22T13:56:36;7.32;;;4.60;;
77111;SDS011;66064;50.226;14.344;2023-06-22T13:59:02;10.15;;;5.10;;
77111;SDS011;66064;50.226;14.344;2023-06-22T14:01:28;6.32;;;4.60;;
77111;SDS011;66064;50.226;14.344;2023-06-22T14:03:54;6.10;;;4.70;;
77111;SDS011;66064;50.226;14.344;2023-06-22T14:06:20;6.43;;;4.63;;
77111;SDS011;66064;50.226;14.344;2023-06-22T14:08:46;7.20;;;4.85;;
77111;SDS011;66064;50.226;14.344;2023-06-22T14:11:12;6.82;;;4.78;;
77111;SDS011;66064;50.226;14.344;2023-06-22T14:13:39;6.68;;;4.65;;
77111;SDS011;66064;50.226;14.344;2023-06-22T14:16:07;6.32;;;4.50;;
77111;SDS011;66064;50.226;14.344;2023-06-22T14:18:33;7.03;;;4.45;;
77111;SDS011;66064;50.226;14.344;2023-06-22T14:20:59;5.28;;;4.25;;
77111;SDS011;66064;50.226;14.344;2023-06-22T14:23:26;5.88;;;4.57;;
77111;SDS011;66064;50.226;14.344;2023-06-22T14:25:52;7.43;;;4.70;;
77111;SDS011;66064;50.226;14.344;2023-06-22T14:28:18;9.77;;;5.05;;
77111;SDS011;66064;50.226;14.344;2023-06-22T14:30:44;7.30;;;4.82;;
77111;SDS011;66064;50.226;14.344;2023-06-22T14:33:10;6.35;;;4.68;;
77111;SDS011;66064;50.226;14.344;2023-06-22T14:35:37;7.63;;;4.55;;
77111;SDS011;66064;50.226;14.344;2023-06-22T14:38:03;5.95;;;4.30;;
77111;SDS011;66064;50.226;14.344;2023-06-22T14:40:29;8.63;;;4.68;;
77111;SDS011;66064;50.226;14.344;2023-06-22T14:43:01;6.80;;;4.82;;
77111;SDS011;66064;50.226;14.344;2023-06-22T14:45:42;8.57;;;4.35;;
77111;SDS011;66064;50.226;14.344;2023-06-22T14:48:08;6.70;;;4.28;;
77111;SDS011;66064;50.226;14.344;2023-06-22T14:50:34;8.18;;;4.72;;
77111;SDS011;66064;50.226;14.344;2023-06-22T14:53:00;6.70;;;5.05;;
77111;SDS011;66064;50.226;14.344;2023-06-22T14:55:26;6.60;;;4.15;;
77111;SDS011;66064;50.226;14.344;2023-06-22T14:57:52;6.30;;;4.15;;
77111;SDS011;66064;50.226;14.344;2023-06-22T15:00:18;5.88;;;4.43;;